sensor_id;sensor_type;location;lat;lon;timestamp;P1;durP1;ratioP1;P2;durP2;ratioP2
8556;SDS011;4316;53.840;10.762;2023-11-22T00:00:27;3.30;;;2.23;;
8556;SDS011;4316;53.840;10.762;2023-11-22T00:02:52;2.20;;;2.10;;
8556;SDS011;4316;53.840;10.762;2023-11-22T00:05:18;2.60;;;2.37;;
8556;SDS011;4316;53.840;10.762;2023-11-22T00:07:44;2.33;;;2.10;;
8556;SDS011;4316;53.840;10.762;2023-11-22T00:10:09;2.37;;;2.23;;
8556;SDS011;4316;53.840;10.762;2023-11-22T00:12:35;2.27;;;2.17;;
8556;SDS011;4316;53.840;10.762;2023-11-22T00:15:04;2.33;;;2.13;;
8556;SDS011;4316;53.840;10.762;2023-11-22T00:17:34;3.17;;;2.30;;
8556;SDS011;4316;53.840;10.762;2023-11-22T00:20:00;5.17;;;2.80;;
8556;SDS011;4316;53.840;10.762;2023-11-22T00:22:30;2.93;;;2.63;;
8556;SDS011;4316;53.840;10.762;2023-11-22T00:24:59;2.73;;;2.53;;
8556;SDS011;4316;53.840;10.762;2023-11-22T00:27:26;7.73;;;2.87;;
8556;SDS011;4316;53.840;10.762;2023-11-22T00:29:52;2.70;;;2.43;;
8556;SDS011;4316;53.840;10.762;2023-11-22T00:32:18;5.77;;;2.40;;
8556;SDS011;4316;53.840;10.762;2023-11-22T00:34:44;2.90;;;2.63;;
8556;SDS011;4316;53.840;10.762;2023-11-22T00:37:10;2.63;;;2.13;;
8556;SDS011;4316;53.840;10.762;2023-11-22T00:39:36;6.67;;;2.63;;
8556;SDS011;4316;53.840;10.762;2023-11-22T00:42:02;3.77;;;2.60;;
8556;SDS011;4316;53.840;10.762;2023-11-22T00:44:29;7.77;;;3.47;;
8556;SDS011;4316;53.840;10.762;2023-11-22T00:46:55;9.37;;;3.40;;
8556;SDS011;4316;53.840;10.762;2023-11-22T00:49:22;5.73;;;3.50;;
8556;SDS011;4316;53.840;10.762;2023-11-22T00:51:48;3.47;;;3.17;;
8556;SDS011;4316;53.840;10.762;2023-11-22T00:54:15;4.00;;;2.83;;
8556;SDS011;4316;53.840;10.762;2023-11-22T00:56:41;3.60;;;3.10;;
8556;SDS011;4316;53.840;10.762;2023-11-22T00:59:07;6.00;;;3.40;;
8556;SDS011;4316;53.840;10.762;2023-11-22T01:01:33;10.20;;;2.87;;
8556;SDS011;4316;53.840;10.762;2023-11-22T01:03:59;4.60;;;3.23;;
8556;SDS011;4316;53.840;10.762;2023-11-22T01:06:25;3.80;;;3.00;;
8556;SDS011;4316;53.840;10.762;2023-11-22T01:08:50;12.47;;;3.13;;
8556;SDS011;4316;53.840;10.762;2023-11-22T01:11:16;5.00;;;3.30;;
8556;SDS011;4316;53.840;10.762;2023-11-22T01:13:42;3.20;;;2.83;;
8556;SDS011;4316;53.840;10.762;2023-11-22T01:16:11;3.33;;;2.50;;
8556;SDS011;4316;53.840;10.762;2023-11-22T01:18:37;3.00;;;2.67;;
8556;SDS011;4316;53.840;10.762;2023-11-22T01:21:03;5.90;;;2.73;;
8556;SDS011;4316;53.840;10.762;2023-11-22T01:23:30;10.03;;;2.90;;
8556;SDS011;4316;53.840;10.762;2023-11-22T01:25:57;7.03;;;2.83;;
8556;SDS011;4316;53.840;10.762;2023-11-22T01:28:26;4.73;;;2.60;;
8556;SDS011;4316;53.840;10.762;2023-11-22T01:30:53;2.37;;;2.17;;
8556;SDS011;4316;53.840;10.762;2023-11-22T01:33:19;4.33;;;3.20;;
8556;SDS011;4316;53.840;10.762;2023-11-22T01:35:49;4.37;;;2.50;;
8556;SDS011;4316;53.840;10.762;2023-11-22T01:38:15;2.87;;;2.60;;
8556;SDS011;4316;53.840;10.762;2023-11-22T01:40:44;5.27;;;2.80;;
8556;SDS011;4316;53.840;10.762;2023-11-22T01:43:14;2.93;;;2.40;;
8556;SDS011;4316;53.840;10.762;2023-11-22T01:45:42;6.10;;;2.70;;
8556;SDS011;4316;53.840;10.762;2023-11-22T01:48:09;3.50;;;2.70;;
8556;SDS011;4316;53.840;10.762;2023-11-22T01:50:36;3.43;;;2.70;;
8556;SDS011;4316;53.840;10.762;2023-11-22T01:53:06;5.30;;;2.67;;
8556;SDS011;4316;53.840;10.762;2023-11-22T01:55:33;3.00;;;2.80;;
8556;SDS011;4316;53.840;10.762;2023-11-22T01:58:00;5.27;;;2.50;;
8556;SDS011;4316;53.840;10.762;2023-11-22T02:00:27;3.10;;;2.60;;
8556;SDS011;4316;53.840;10.762;2023-11-22T02:03:00;9.17;;;2.47;;
8556;SDS011;4316;53.840;10.762;2023-11-22T02:05:26;6.90;;;2.67;;
8556;SDS011;4316;53.840;10.762;2023-11-22T02:07:51;3.30;;;2.83;;
8556;SDS011;4316;53.840;10.762;2023-11-22T02:10:17;3.20;;;2.83;;
8556;SDS011;4316;53.840;10.762;2023-11-22T02:12:43;3.63;;;2.87;;
8556;SDS011;4316;53.840;10.762;2023-11-22T02:15:08;3.50;;;3.10;;
8556;SDS011;4316;53.840;10.762;2023-11-22T02:17:34;4.13;;;2.40;;
8556;SDS011;4316;53.840;10.762;2023-11-22T02:20:01;3.03;;;2.70;;
8556;SDS011;4316;53.840;10.762;2023-11-22T02:22:31;3.00;;;2.80;;
8556;SDS011;4316;53.840;10.762;2023-11-22T02:24:56;5.53;;;2.63;;
8556;SDS011;4316;53.840;10.762;2023-11-22T02:27:22;4.00;;;2.63;;
8556;SDS011;4316;53.840;10.762;2023-11-22T02:29:49;3.83;;;3.13;;
8556;SDS011;4316;53.840;10.762;2023-11-22T02:32:15;3.27;;;2.80;;
8556;SDS011;4316;53.840;10.762;2023-11-22T02:34:40;3.53;;;2.63;;
8556;SDS011;4316;53.840;10.762;2023-11-22T02:37:06;3.07;;;2.50;;
8556;SDS011;4316;53.840;10.762;2023-11-22T02:39:38;4.53;;;3.17;;
8556;SDS011;4316;53.840;10.762;2023-11-22T02:42:13;12.30;;;2.87;;
8556;SDS011;4316;53.840;10.762;2023-11-22T02:44:38;3.23;;;2.43;;
8556;SDS011;4316;53.840;10.762;2023-11-22T02:47:05;4.33;;;2.77;;
8556;SDS011;4316;53.840;10.762;2023-11-22T02:49:30;5.80;;;3.27;;
8556;SDS011;4316;53.840;10.762;2023-11-22T02:51:56;3.03;;;2.70;;
8556;SDS011;4316;53.840;10.762;2023-11-22T02:54:21;2.77;;;2.57;;
8556;SDS011;4316;53.840;10.762;2023-11-22T02:56:47;2.67;;;2.40;;
8556;SDS011;4316;53.840;10.762;2023-11-22T02:59:13;4.97;;;2.50;;
8556;SDS011;4316;53.840;10.762;2023-11-22T03:01:39;3.73;;;2.83;;
8556;SDS011;4316;53.840;10.762;2023-11-22T03:04:07;5.73;;;3.10;;
8556;SDS011;4316;53.840;10.762;2023-11-22T03:06:35;3.23;;;2.90;;
8556;SDS011;4316;53.840;10.762;2023-11-22T03:09:01;3.60;;;2.70;;
8556;SDS011;4316;53.840;10.762;2023-11-22T03:11:27;5.87;;;2.90;;
8556;SDS011;4316;53.840;10.762;2023-11-22T03:13:52;5.20;;;3.27;;
8556;SDS011;4316;53.840;10.762;2023-11-22T03:16:18;3.00;;;2.70;;
8556;SDS011;4316;53.840;10.762;2023-11-22T03:18:43;3.63;;;2.93;;
8556;SDS011;4316;53.840;10.762;2023-11-22T03:21:09;2.80;;;2.53;;
8556;SDS011;4316;53.840;10.762;2023-11-22T03:23:35;5.57;;;2.40;;
8556;SDS011;4316;53.840;10.762;2023-11-22T03:26:00;3.50;;;2.83;;
8556;SDS011;4316;53.840;10.762;2023-11-22T03:28:26;2.77;;;2.53;;
8556;SDS011;4316;53.840;10.762;2023-11-22T03:30:56;3.33;;;3.03;;
8556;SDS011;4316;53.840;10.762;2023-11-22T03:33:21;2.83;;;2.63;;
8556;SDS011;4316;53.840;10.762;2023-11-22T03:35:47;3.77;;;3.00;;
8556;SDS011;4316;53.840;10.762;2023-11-22T03:38:12;3.70;;;2.73;;
8556;SDS011;4316;53.840;10.762;2023-11-22T03:40:38;2.90;;;2.67;;
8556;SDS011;4316;53.840;10.762;2023-11-22T03:43:04;4.50;;;3.23;;
8556;SDS011;4316;53.840;10.762;2023-11-22T03:45:29;3.57;;;2.87;;
8556;SDS011;4316;53.840;10.762;2023-11-22T03:47:55;3.90;;;3.20;;
8556;SDS011;4316;53.840;10.762;2023-11-22T03:50:23;3.27;;;2.93;;
8556;SDS011;4316;53.840;10.762;2023-11-22T03:52:48;4.40;;;3.00;;
8556;SDS011;4316;53.840;10.762;2023-11-22T03:55:14;5.70;;;2.83;;
8556;SDS011;4316;53.840;10.762;2023-11-22T03:57:39;3.40;;;3.10;;
8556;SDS011;4316;53.840;10.762;2023-11-22T04:00:05;5.60;;;3.23;;
8556;SDS011;4316;53.840;10.762;2023-11-22T04:02:37;4.17;;;3.27;;
8556;SDS011;4316;53.840;10.762;2023-11-22T04:05:04;3.07;;;2.83;;
8556;SDS011;4316;53.840;10.762;2023-11-22T04:07:30;3.23;;;2.93;;
8556;SDS011;4316;53.840;10.762;2023-11-22T04:09:55;3.77;;;3.30;;
8556;SDS011;4316;53.840;10.762;2023-11-22T04:12:21;3.30;;;3.00;;
8556;SDS011;4316;53.840;10.762;2023-11-22T04:14:46;3.10;;;2.80;;
8556;SDS011;4316;53.840;10.762;2023-11-22T04:17:13;4.30;;;3.70;;
8556;SDS011;4316;53.840;10.762;2023-11-22T04:19:38;3.00;;;2.70;;
8556;SDS011;4316;53.840;10.762;2023-11-22T04:22:04;3.10;;;2.83;;
8556;SDS011;4316;53.840;10.762;2023-11-22T04:24:29;2.43;;;2.27;;
8556;SDS011;4316;53.840;10.762;2023-11-22T04:26:55;3.37;;;3.10;;
8556;SDS011;4316;53.840;10.762;2023-11-22T04:29:20;3.17;;;2.87;;
8556;SDS011;4316;53.840;10.762;2023-11-22T04:31:46;11.37;;;3.40;;
8556;SDS011;4316;53.840;10.762;2023-11-22T04:34:11;5.20;;;2.77;;
8556;SDS011;4316;53.840;10.762;2023-11-22T04:36:37;3.63;;;3.00;;
8556;SDS011;4316;53.840;10.762;2023-11-22T04:39:03;5.23;;;3.10;;
8556;SDS011;4316;53.840;10.762;2023-11-22T04:41:29;3.47;;;3.03;;
8556;SDS011;4316;53.840;10.762;2023-11-22T04:43:55;5.10;;;2.73;;
8556;SDS011;4316;53.840;10.762;2023-11-22T04:46:20;3.27;;;2.97;;
8556;SDS011;4316;53.840;10.762;2023-11-22T04:48:46;3.30;;;3.00;;
8556;SDS011;4316;53.840;10.762;2023-11-22T04:51:16;3.73;;;3.10;;
8556;SDS011;4316;53.840;10.762;2023-11-22T04:53:41;3.10;;;2.90;;
8556;SDS011;4316;53.840;10.762;2023-11-22T04:56:09;6.97;;;3.00;;
8556;SDS011;4316;53.840;10.762;2023-11-22T04:58:34;5.07;;;3.07;;
8556;SDS011;4316;53.840;10.762;2023-11-22T05:01:01;3.87;;;3.50;;
8556;SDS011;4316;53.840;10.762;2023-11-22T05:03:27;3.40;;;3.10;;
8556;SDS011;4316;53.840;10.762;2023-11-22T05:05:52;5.80;;;3.70;;
8556;SDS011;4316;53.840;10.762;2023-11-22T05:08:18;3.13;;;2.90;;
8556;SDS011;4316;53.840;10.762;2023-11-22T05:10:44;3.33;;;3.00;;
8556;SDS011;4316;53.840;10.762;2023-11-22T05:13:09;3.50;;;3.10;;
8556;SDS011;4316;53.840;10.762;2023-11-22T05:15:36;5.27;;;2.87;;
8556;SDS011;4316;53.840;10.762;2023-11-22T05:18:01;5.07;;;2.70;;
8556;SDS011;4316;53.840;10.762;2023-11-22T05:20:27;3.87;;;3.20;;
8556;SDS011;4316;53.840;10.762;2023-11-22T05:22:53;3.07;;;2.80;;
8556;SDS011;4316;53.840;10.762;2023-11-22T05:25:18;6.27;;;3.10;;
8556;SDS011;4316;53.840;10.762;2023-11-22T05:27:44;5.13;;;3.20;;
8556;SDS011;4316;53.840;10.762;2023-11-22T05:30:10;3.60;;;3.30;;
8556;SDS011;4316;53.840;10.762;2023-11-22T05:32:36;4.77;;;3.10;;
8556;SDS011;4316;53.840;10.762;2023-11-22T05:35:01;4.23;;;2.70;;
8556;SDS011;4316;53.840;10.762;2023-11-22T05:37:28;4.13;;;3.27;;
8556;SDS011;4316;53.840;10.762;2023-11-22T05:39:54;4.80;;;3.23;;
8556;SDS011;4316;53.840;10.762;2023-11-22T05:42:20;4.33;;;3.40;;
8556;SDS011;4316;53.840;10.762;2023-11-22T05:44:46;4.97;;;3.20;;
8556;SDS011;4316;53.840;10.762;2023-11-22T05:47:11;3.57;;;3.10;;
8556;SDS011;4316;53.840;10.762;2023-11-22T05:49:38;4.27;;;3.27;;
8556;SDS011;4316;53.840;10.762;2023-11-22T05:52:04;4.30;;;3.10;;
8556;SDS011;4316;53.840;10.762;2023-11-22T05:54:29;3.43;;;3.17;;
8556;SDS011;4316;53.840;10.762;2023-11-22T05:56:56;5.50;;;3.03;;
8556;SDS011;4316;53.840;10.762;2023-11-22T05:59:22;4.00;;;3.30;;
8556;SDS011;4316;53.840;10.762;2023-11-22T06:01:49;5.50;;;2.97;;
8556;SDS011;4316;53.840;10.762;2023-11-22T06:04:14;3.20;;;2.77;;
8556;SDS011;4316;53.840;10.762;2023-11-22T06:06:40;4.50;;;3.07;;
8556;SDS011;4316;53.840;10.762;2023-11-22T06:09:05;6.17;;;3.90;;
8556;SDS011;4316;53.840;10.762;2023-11-22T06:11:32;19.23;;;10.50;;
8556;SDS011;4316;53.840;10.762;2023-11-22T06:13:58;15.90;;;7.40;;
8556;SDS011;4316;53.840;10.762;2023-11-22T06:16:25;6.23;;;4.37;;
8556;SDS011;4316;53.840;10.762;2023-11-22T06:18:50;3.20;;;2.90;;
8556;SDS011;4316;53.840;10.762;2023-11-22T06:21:16;3.30;;;3.00;;
8556;SDS011;4316;53.840;10.762;2023-11-22T06:23:42;4.43;;;3.07;;
8556;SDS011;4316;53.840;10.762;2023-11-22T06:26:07;4.00;;;2.87;;
8556;SDS011;4316;53.840;10.762;2023-11-22T06:28:33;4.73;;;3.70;;
8556;SDS011;4316;53.840;10.762;2023-11-22T06:31:00;3.80;;;3.50;;
8556;SDS011;4316;53.840;10.762;2023-11-22T06:33:25;3.40;;;3.10;;
8556;SDS011;4316;53.840;10.762;2023-11-22T06:35:51;5.37;;;4.17;;
8556;SDS011;4316;53.840;10.762;2023-11-22T06:38:16;8.73;;;5.50;;
8556;SDS011;4316;53.840;10.762;2023-11-22T06:40:42;6.57;;;4.77;;
8556;SDS011;4316;53.840;10.762;2023-11-22T06:43:07;4.40;;;4.00;;
8556;SDS011;4316;53.840;10.762;2023-11-22T06:45:33;4.37;;;3.97;;
8556;SDS011;4316;53.840;10.762;2023-11-22T06:47:59;5.17;;;4.17;;
8556;SDS011;4316;53.840;10.762;2023-11-22T06:50:25;5.83;;;4.00;;
8556;SDS011;4316;53.840;10.762;2023-11-22T06:52:51;4.03;;;3.67;;
8556;SDS011;4316;53.840;10.762;2023-11-22T06:55:18;10.93;;;4.23;;
8556;SDS011;4316;53.840;10.762;2023-11-22T06:57:43;7.03;;;3.73;;
8556;SDS011;4316;53.840;10.762;2023-11-22T07:00:09;11.27;;;3.90;;
8556;SDS011;4316;53.840;10.762;2023-11-22T07:02:37;7.57;;;3.67;;
8556;SDS011;4316;53.840;10.762;2023-11-22T07:05:03;3.47;;;3.17;;
8556;SDS011;4316;53.840;10.762;2023-11-22T07:07:33;8.00;;;4.03;;
8556;SDS011;4316;53.840;10.762;2023-11-22T07:09:58;5.67;;;4.40;;
8556;SDS011;4316;53.840;10.762;2023-11-22T07:12:24;10.80;;;3.97;;
8556;SDS011;4316;53.840;10.762;2023-11-22T07:14:51;4.53;;;4.03;;
8556;SDS011;4316;53.840;10.762;2023-11-22T07:17:17;3.97;;;3.57;;
8556;SDS011;4316;53.840;10.762;2023-11-22T07:19:43;11.90;;;4.37;;
8556;SDS011;4316;53.840;10.762;2023-11-22T07:22:15;5.00;;;4.10;;
8556;SDS011;4316;53.840;10.762;2023-11-22T07:24:44;4.87;;;4.17;;
8556;SDS011;4316;53.840;10.762;2023-11-22T07:27:14;4.17;;;3.87;;
8556;SDS011;4316;53.840;10.762;2023-11-22T07:29:40;5.47;;;3.90;;
8556;SDS011;4316;53.840;10.762;2023-11-22T07:32:06;4.93;;;4.43;;
8556;SDS011;4316;53.840;10.762;2023-11-22T07:34:33;5.13;;;4.47;;
8556;SDS011;4316;53.840;10.762;2023-11-22T07:37:00;4.70;;;4.30;;
8556;SDS011;4316;53.840;10.762;2023-11-22T07:39:25;5.10;;;4.47;;
8556;SDS011;4316;53.840;10.762;2023-11-22T07:41:54;6.07;;;4.60;;
8556;SDS011;4316;53.840;10.762;2023-11-22T07:44:21;4.97;;;4.50;;
8556;SDS011;4316;53.840;10.762;2023-11-22T07:46:47;4.73;;;4.10;;
8556;SDS011;4316;53.840;10.762;2023-11-22T07:49:13;6.73;;;3.97;;
8556;SDS011;4316;53.840;10.762;2023-11-22T07:51:39;5.37;;;4.47;;
8556;SDS011;4316;53.840;10.762;2023-11-22T07:54:05;10.20;;;4.83;;
8556;SDS011;4316;53.840;10.762;2023-11-22T07:56:31;6.37;;;4.97;;
8556;SDS011;4316;53.840;10.762;2023-11-22T07:58:57;5.80;;;4.63;;
8556;SDS011;4316;53.840;10.762;2023-11-22T08:01:23;6.17;;;4.97;;
8556;SDS011;4316;53.840;10.762;2023-11-22T08:03:50;7.57;;;4.93;;
8556;SDS011;4316;53.840;10.762;2023-11-22T08:06:17;7.50;;;4.63;;
8556;SDS011;4316;53.840;10.762;2023-11-22T08:08:42;7.83;;;4.63;;
8556;SDS011;4316;53.840;10.762;2023-11-22T08:11:10;4.77;;;4.30;;
8556;SDS011;4316;53.840;10.762;2023-11-22T08:13:40;4.93;;;4.20;;
8556;SDS011;4316;53.840;10.762;2023-11-22T08:16:10;4.67;;;4.20;;
8556;SDS011;4316;53.840;10.762;2023-11-22T08:18:38;6.23;;;5.23;;
8556;SDS011;4316;53.840;10.762;2023-11-22T08:21:04;7.73;;;5.37;;
8556;SDS011;4316;53.840;10.762;2023-11-22T08:23:30;7.80;;;5.50;;
8556;SDS011;4316;53.840;10.762;2023-11-22T08:25:58;11.73;;;7.17;;
8556;SDS011;4316;53.840;10.762;2023-11-22T08:28:24;11.07;;;8.27;;
8556;SDS011;4316;53.840;10.762;2023-11-22T08:30:51;10.97;;;7.73;;
8556;SDS011;4316;53.840;10.762;2023-11-22T08:33:16;10.57;;;7.67;;
8556;SDS011;4316;53.840;10.762;2023-11-22T08:35:42;9.20;;;6.80;;
8556;SDS011;4316;53.840;10.762;2023-11-22T08:38:08;9.87;;;6.27;;
8556;SDS011;4316;53.840;10.762;2023-11-22T08:40:34;7.43;;;5.70;;
8556;SDS011;4316;53.840;10.762;2023-11-22T08:43:02;8.67;;;5.00;;
8556;SDS011;4316;53.840;10.762;2023-11-22T08:45:29;11.53;;;5.57;;
8556;SDS011;4316;53.840;10.762;2023-11-22T08:47:56;8.73;;;5.83;;
8556;SDS011;4316;53.840;10.762;2023-11-22T08:50:22;8.40;;;5.93;;
8556;SDS011;4316;53.840;10.762;2023-11-22T08:52:48;32.93;;;6.53;;
8556;SDS011;4316;53.840;10.762;2023-11-22T08:55:18;7.93;;;5.73;;
8556;SDS011;4316;53.840;10.762;2023-11-22T08:57:47;7.57;;;5.80;;
8556;SDS011;4316;53.840;10.762;2023-11-22T09:00:13;7.57;;;5.50;;
8556;SDS011;4316;53.840;10.762;2023-11-22T09:02:39;7.23;;;5.27;;
8556;SDS011;4316;53.840;10.762;2023-11-22T09:05:05;5.60;;;5.03;;
8556;SDS011;4316;53.840;10.762;2023-11-22T09:07:33;9.27;;;5.43;;
8556;SDS011;4316;53.840;10.762;2023-11-22T09:10:01;10.90;;;5.40;;
8556;SDS011;4316;53.840;10.762;2023-11-22T09:12:34;5.80;;;5.07;;
8556;SDS011;4316;53.840;10.762;2023-11-22T09:15:01;5.33;;;4.87;;
8556;SDS011;4316;53.840;10.762;2023-11-22T09:17:28;7.63;;;4.60;;
8556;SDS011;4316;53.840;10.762;2023-11-22T09:19:54;9.00;;;5.80;;
8556;SDS011;4316;53.840;10.762;2023-11-22T09:22:21;6.97;;;5.00;;
8556;SDS011;4316;53.840;10.762;2023-11-22T09:24:46;5.33;;;4.83;;
8556;SDS011;4316;53.840;10.762;2023-11-22T09:27:12;5.13;;;4.67;;
8556;SDS011;4316;53.840;10.762;2023-11-22T09:29:41;4.90;;;4.40;;
8556;SDS011;4316;53.840;10.762;2023-11-22T09:32:07;5.40;;;4.90;;
8556;SDS011;4316;53.840;10.762;2023-11-22T09:34:33;5.27;;;4.77;;
8556;SDS011;4316;53.840;10.762;2023-11-22T09:37:00;9.07;;;6.10;;
8556;SDS011;4316;53.840;10.762;2023-11-22T09:39:25;7.00;;;5.60;;
8556;SDS011;4316;53.840;10.762;2023-11-22T09:41:52;9.63;;;5.47;;
8556;SDS011;4316;53.840;10.762;2023-11-22T09:44:19;7.40;;;5.73;;
8556;SDS011;4316;53.840;10.762;2023-11-22T09:46:46;6.83;;;6.13;;
8556;SDS011;4316;53.840;10.762;2023-11-22T09:49:14;9.67;;;5.77;;
8556;SDS011;4316;53.840;10.762;2023-11-22T09:51:44;6.77;;;5.70;;
8556;SDS011;4316;53.840;10.762;2023-11-22T09:54:12;7.47;;;6.00;;
8556;SDS011;4316;53.840;10.762;2023-11-22T09:56:40;10.37;;;5.53;;
8556;SDS011;4316;53.840;10.762;2023-11-22T09:59:07;8.40;;;5.87;;
8556;SDS011;4316;53.840;10.762;2023-11-22T10:01:33;6.07;;;5.13;;
8556;SDS011;4316;53.840;10.762;2023-11-22T10:04:01;6.27;;;5.67;;
8556;SDS011;4316;53.840;10.762;2023-11-22T10:06:30;9.57;;;5.27;;
8556;SDS011;4316;53.840;10.762;2023-11-22T10:09:01;6.13;;;4.50;;
8556;SDS011;4316;53.840;10.762;2023-11-22T10:11:32;6.07;;;5.00;;
8556;SDS011;4316;53.840;10.762;2023-11-22T10:13:58;6.13;;;5.53;;
8556;SDS011;4316;53.840;10.762;2023-11-22T10:16:24;5.77;;;5.03;;
8556;SDS011;4316;53.840;10.762;2023-11-22T10:18:49;6.57;;;5.30;;
8556;SDS011;4316;53.840;10.762;2023-11-22T10:23:55;8.23;;;5.30;;
8556;SDS011;4316;53.840;10.762;2023-11-22T10:26:22;7.00;;;5.27;;
8556;SDS011;4316;53.840;10.762;2023-11-22T10:28:52;5.73;;;5.03;;
8556;SDS011;4316;53.840;10.762;2023-11-22T10:31:18;19.27;;;4.90;;
8556;SDS011;4316;53.840;10.762;2023-11-22T10:33:44;5.23;;;4.83;;
8556;SDS011;4316;53.840;10.762;2023-11-22T10:36:11;5.70;;;4.57;;
8556;SDS011;4316;53.840;10.762;2023-11-22T10:38:37;6.30;;;5.10;;
8556;SDS011;4316;53.840;10.762;2023-11-22T10:41:09;5.27;;;4.70;;
8556;SDS011;4316;53.840;10.762;2023-11-22T10:43:35;4.63;;;4.23;;
8556;SDS011;4316;53.840;10.762;2023-11-22T10:46:02;6.90;;;4.80;;
8556;SDS011;4316;53.840;10.762;2023-11-22T10:48:30;5.27;;;4.30;;
8556;SDS011;4316;53.840;10.762;2023-11-22T10:51:00;4.43;;;4.03;;
8556;SDS011;4316;53.840;10.762;2023-11-22T10:53:34;5.50;;;4.10;;
8556;SDS011;4316;53.840;10.762;2023-11-22T10:56:21;3.90;;;3.60;;
8556;SDS011;4316;53.840;10.762;2023-11-22T10:58:47;5.83;;;4.47;;
8556;SDS011;4316;53.840;10.762;2023-11-22T11:01:18;9.07;;;6.67;;
8556;SDS011;4316;53.840;10.762;2023-11-22T11:06:22;5.37;;;3.63;;
8556;SDS011;4316;53.840;10.762;2023-11-22T11:08:53;3.70;;;3.30;;
8556;SDS011;4316;53.840;10.762;2023-11-22T11:11:20;3.83;;;3.37;;
8556;SDS011;4316;53.840;10.762;2023-11-22T11:13:48;6.27;;;3.37;;
8556;SDS011;4316;53.840;10.762;2023-11-22T11:16:14;5.10;;;2.93;;
8556;SDS011;4316;53.840;10.762;2023-11-22T11:18:44;4.17;;;3.63;;
8556;SDS011;4316;53.840;10.762;2023-11-22T11:21:10;4.50;;;4.10;;
8556;SDS011;4316;53.840;10.762;2023-11-22T11:23:39;5.40;;;4.20;;
8556;SDS011;4316;53.840;10.762;2023-11-22T11:26:16;4.40;;;4.00;;
8556;SDS011;4316;53.840;10.762;2023-11-22T11:28:46;3.83;;;3.53;;
8556;SDS011;4316;53.840;10.762;2023-11-22T11:31:13;5.30;;;3.93;;
8556;SDS011;4316;53.840;10.762;2023-11-22T11:36:25;6.93;;;5.90;;
8556;SDS011;4316;53.840;10.762;2023-11-22T11:38:54;3.70;;;3.33;;
8556;SDS011;4316;53.840;10.762;2023-11-22T11:41:33;5.90;;;2.47;;
8556;SDS011;4316;53.840;10.762;2023-11-22T11:44:02;5.60;;;2.37;;
8556;SDS011;4316;53.840;10.762;2023-11-22T11:46:32;3.40;;;3.03;;
8556;SDS011;4316;53.840;10.762;2023-11-22T11:48:58;2.43;;;2.20;;
8556;SDS011;4316;53.840;10.762;2023-11-22T11:51:24;2.80;;;2.30;;
8556;SDS011;4316;53.840;10.762;2023-11-22T11:53:52;2.50;;;2.40;;
8556;SDS011;4316;53.840;10.762;2023-11-22T11:56:18;3.33;;;2.43;;
8556;SDS011;4316;53.840;10.762;2023-11-22T11:58:44;2.03;;;1.93;;
8556;SDS011;4316;53.840;10.762;2023-11-22T12:01:19;3.90;;;2.10;;
8556;SDS011;4316;53.840;10.762;2023-11-22T12:03:46;2.50;;;1.93;;
8556;SDS011;4316;53.840;10.762;2023-11-22T12:06:15;2.40;;;2.20;;
8556;SDS011;4316;53.840;10.762;2023-11-22T12:08:42;1.93;;;1.77;;
8556;SDS011;4316;53.840;10.762;2023-11-22T12:11:08;4.07;;;2.23;;
8556;SDS011;4316;53.840;10.762;2023-11-22T12:13:35;2.43;;;2.23;;
8556;SDS011;4316;53.840;10.762;2023-11-22T12:16:08;2.87;;;2.30;;
8556;SDS011;4316;53.840;10.762;2023-11-22T12:18:45;1.83;;;1.73;;
8556;SDS011;4316;53.840;10.762;2023-11-22T12:21:15;2.40;;;2.20;;
8556;SDS011;4316;53.840;10.762;2023-11-22T12:23:42;1.90;;;1.80;;
8556;SDS011;4316;53.840;10.762;2023-11-22T12:26:17;4.77;;;1.67;;
8556;SDS011;4316;53.840;10.762;2023-11-22T12:28:46;3.97;;;2.40;;
8556;SDS011;4316;53.840;10.762;2023-11-22T12:31:16;3.43;;;2.17;;
8556;SDS011;4316;53.840;10.762;2023-11-22T12:33:42;2.07;;;1.97;;
8556;SDS011;4316;53.840;10.762;2023-11-22T12:36:09;3.70;;;2.20;;
8556;SDS011;4316;53.840;10.762;2023-11-22T12:38:36;2.20;;;2.10;;
8556;SDS011;4316;53.840;10.762;2023-11-22T12:41:02;3.53;;;2.57;;
8556;SDS011;4316;53.840;10.762;2023-11-22T12:43:29;2.70;;;2.50;;
8556;SDS011;4316;53.840;10.762;2023-11-22T12:45:59;2.80;;;2.50;;
8556;SDS011;4316;53.840;10.762;2023-11-22T12:48:25;7.63;;;5.77;;
8556;SDS011;4316;53.840;10.762;2023-11-22T12:50:54;5.77;;;3.90;;
8556;SDS011;4316;53.840;10.762;2023-11-22T12:53:20;4.10;;;3.70;;
8556;SDS011;4316;53.840;10.762;2023-11-22T12:55:47;3.33;;;3.03;;
8556;SDS011;4316;53.840;10.762;2023-11-22T12:58:15;4.13;;;3.07;;
8556;SDS011;4316;53.840;10.762;2023-11-22T13:00:41;2.80;;;2.60;;
8556;SDS011;4316;53.840;10.762;2023-11-22T13:03:08;3.30;;;2.40;;
8556;SDS011;4316;53.840;10.762;2023-11-22T13:05:41;2.80;;;2.60;;
8556;SDS011;4316;53.840;10.762;2023-11-22T13:08:10;5.37;;;2.43;;
8556;SDS011;4316;53.840;10.762;2023-11-22T13:10:38;4.73;;;2.27;;
8556;SDS011;4316;53.840;10.762;2023-11-22T13:13:18;3.80;;;3.43;;
8556;SDS011;4316;53.840;10.762;2023-11-22T13:15:45;7.33;;;4.00;;
8556;SDS011;4316;53.840;10.762;2023-11-22T13:18:11;9.67;;;6.13;;
8556;SDS011;4316;53.840;10.762;2023-11-22T13:20:36;7.83;;;5.00;;
8556;SDS011;4316;53.840;10.762;2023-11-22T13:23:03;5.63;;;3.47;;
8556;SDS011;4316;53.840;10.762;2023-11-22T13:25:29;5.73;;;2.80;;
8556;SDS011;4316;53.840;10.762;2023-11-22T13:27:55;3.10;;;2.80;;
8556;SDS011;4316;53.840;10.762;2023-11-22T13:30:21;4.57;;;2.40;;
8556;SDS011;4316;53.840;10.762;2023-11-22T13:32:54;4.93;;;3.53;;
8556;SDS011;4316;53.840;10.762;2023-11-22T13:35:25;3.40;;;3.10;;
8556;SDS011;4316;53.840;10.762;2023-11-22T13:37:56;2.77;;;2.57;;
8556;SDS011;4316;53.840;10.762;2023-11-22T13:40:27;4.23;;;3.40;;
8556;SDS011;4316;53.840;10.762;2023-11-22T13:42:56;5.93;;;4.40;;
8556;SDS011;4316;53.840;10.762;2023-11-22T13:45:22;4.20;;;3.70;;
8556;SDS011;4316;53.840;10.762;2023-11-22T13:47:48;2.60;;;2.40;;
8556;SDS011;4316;53.840;10.762;2023-11-22T13:50:16;2.93;;;2.63;;
8556;SDS011;4316;53.840;10.762;2023-11-22T13:52:47;2.83;;;2.60;;
8556;SDS011;4316;53.840;10.762;2023-11-22T13:55:13;3.67;;;2.63;;
8556;SDS011;4316;53.840;10.762;2023-11-22T13:57:41;2.40;;;2.20;;
8556;SDS011;4316;53.840;10.762;2023-11-22T14:00:07;4.30;;;2.83;;
8556;SDS011;4316;53.840;10.762;2023-11-22T14:03:00;2.73;;;2.53;;
8556;SDS011;4316;53.840;10.762;2023-11-22T14:05:32;3.93;;;2.50;;
8556;SDS011;4316;53.840;10.762;2023-11-22T14:08:00;3.67;;;2.57;;
8556;SDS011;4316;53.840;10.762;2023-11-22T14:10:26;4.63;;;3.77;;
8556;SDS011;4316;53.840;10.762;2023-11-22T14:12:51;3.03;;;2.70;;
8556;SDS011;4316;53.840;10.762;2023-11-22T14:15:17;3.83;;;2.97;;
8556;SDS011;4316;53.840;10.762;2023-11-22T14:17:44;2.33;;;2.13;;
8556;SDS011;4316;53.840;10.762;2023-11-22T14:20:10;4.13;;;2.60;;
8556;SDS011;4316;53.840;10.762;2023-11-22T14:22:37;2.23;;;2.13;;
8556;SDS011;4316;53.840;10.762;2023-11-22T14:25:04;7.17;;;3.20;;
8556;SDS011;4316;53.840;10.762;2023-11-22T14:27:38;4.17;;;3.17;;
8556;SDS011;4316;53.840;10.762;2023-11-22T14:30:05;3.23;;;3.00;;
8556;SDS011;4316;53.840;10.762;2023-11-22T14:32:33;2.23;;;2.13;;
8556;SDS011;4316;53.840;10.762;2023-11-22T14:35:00;3.10;;;2.60;;
8556;SDS011;4316;53.840;10.762;2023-11-22T14:37:29;5.10;;;2.90;;
8556;SDS011;4316;53.840;10.762;2023-11-22T14:39:55;3.20;;;2.90;;
8556;SDS011;4316;53.840;10.762;2023-11-22T14:42:25;3.20;;;2.83;;
8556;SDS011;4316;53.840;10.762;2023-11-22T14:44:50;3.47;;;2.87;;
8556;SDS011;4316;53.840;10.762;2023-11-22T14:47:16;3.13;;;2.80;;
8556;SDS011;4316;53.840;10.762;2023-11-22T14:49:48;3.63;;;3.17;;
8556;SDS011;4316;53.840;10.762;2023-11-22T14:52:14;4.03;;;3.47;;
8556;SDS011;4316;53.840;10.762;2023-11-22T14:54:46;10.10;;;5.63;;
8556;SDS011;4316;53.840;10.762;2023-11-22T14:57:13;7.03;;;5.23;;
8556;SDS011;4316;53.840;10.762;2023-11-22T14:59:40;4.57;;;3.13;;
8556;SDS011;4316;53.840;10.762;2023-11-22T15:02:06;5.53;;;2.80;;
8556;SDS011;4316;53.840;10.762;2023-11-22T15:04:36;2.10;;;2.00;;
8556;SDS011;4316;53.840;10.762;2023-11-22T15:07:05;3.40;;;3.10;;